createdAt,value
2016-06-08T00:00:36.589Z,99.99
2016-06-08T00:01:36.562Z,99.99
2016-06-08T00:02:36.548Z,99.99
2016-06-08T00:03:36.535Z,99.99
2016-06-08T00:04:36.491Z,99.99
2016-06-08T00:05:36.494Z,99.99
2016-06-08T00:06:36.466Z,99.99
2016-06-08T00:07:36.436Z,99.99
2016-06-08T00:08:36.424Z,99.99
2016-06-08T00:09:36.395Z,99.99
2016-06-08T00:10:36.397Z,99.99
2016-06-08T00:11:36.729Z,99.99
2016-06-08T00:12:36.340Z,99.99
2016-06-08T00:13:36.327Z,99.99
2016-06-08T00:14:36.299Z,99.99
2016-06-08T00:15:36.271Z,99.99
2016-06-08T00:16:36.258Z,99.99
2016-06-08T00:17:36.245Z,99.99
2016-06-08T00:18:36.232Z,99.99
2016-06-08T00:19:36.203Z,99.99
2016-06-08T00:20:36.174Z,99.99
2016-06-08T00:21:36.162Z,99.99
2016-06-08T00:22:36.134Z,99.99
2016-06-08T00:23:36.120Z,99.99
2016-06-08T00:24:36.091Z,99.99
2016-06-08T00:25:36.079Z,99.99
2016-06-08T00:26:36.581Z,99.99
2016-06-08T00:27:36.037Z,99.99
2016-06-08T00:28:36.008Z,99.99
2016-06-08T00:29:35.995Z,99.99
2016-06-08T00:30:35.983Z,99.99
2016-06-08T00:31:35.954Z,99.99
2016-06-08T00:32:35.942Z,99.99
2016-06-08T00:33:35.913Z,99.99
2016-06-08T00:34:35.900Z,99.99
2016-06-08T00:35:35.886Z,99.99
2016-06-08T00:36:35.858Z,99.99
2016-06-08T00:37:35.830Z,99.99
2016-06-08T00:38:35.816Z,99.99
2016-06-08T00:39:35.789Z,99.99
2016-06-08T00:40:35.775Z,99.99
2016-06-08T00:41:36.200Z,99.99
2016-06-08T00:42:35.734Z,99.99
2016-06-08T00:43:35.721Z,99.99
2016-06-08T00:44:35.693Z,99.99
2016-06-08T00:45:35.663Z,99.99
2016-06-08T00:46:35.651Z,99.99
2016-06-08T00:47:35.622Z,99.99
2016-06-08T00:48:35.610Z,99.99
2016-06-08T00:49:35.596Z,99.99
2016-06-08T00:50:35.568Z,99.99
2016-06-08T00:51:35.539Z,99.99
2016-06-08T00:52:35.526Z,99.99
2016-06-08T00:53:35.498Z,99.99
2016-06-08T00:54:35.484Z,99.99
2016-06-08T00:55:35.457Z,99.99
2016-06-08T00:56:35.381Z,99.99
2016-06-08T00:57:35.431Z,99.99
2016-06-08T00:58:35.402Z,99.99
2016-06-08T00:59:35.389Z,99.99
2016-06-08T01:00:35.361Z,99.99
2016-06-08T01:01:35.347Z,99.99
2016-06-08T01:02:35.334Z,99.99
2016-06-08T01:03:35.306Z,99.99
2016-06-08T01:04:35.293Z,99.99
2016-06-08T01:05:35.264Z,99.99
2016-06-08T01:06:35.236Z,99.99
2016-06-08T01:07:35.222Z,99.99
2016-06-08T01:08:35.210Z,99.99
2016-06-08T01:09:35.041Z,99.99
2016-06-08T01:10:34.996Z,99.99
2016-06-08T01:11:35.156Z,99.99
2016-06-08T01:12:35.111Z,99.99
2016-06-08T01:13:35.099Z,99.99
2016-06-08T01:14:35.086Z,99.99
2016-06-08T01:15:35.057Z,99.99
2016-06-08T01:16:35.044Z,99.99
2016-06-08T01:17:35.015Z,99.99
2016-06-08T01:18:35.002Z,99.99
2016-06-08T01:19:34.974Z,99.99
2016-06-08T01:20:34.961Z,99.99
2016-06-08T01:21:34.792Z,99.99
2016-06-08T01:22:34.920Z,99.99
2016-06-08T01:23:34.891Z,99.99
2016-06-08T01:24:34.878Z,99.99
2016-06-08T01:25:34.849Z,99.99
2016-06-08T01:26:34.836Z,99.99
2016-06-08T01:27:34.824Z,99.99
2016-06-08T01:28:34.795Z,99.99
2016-06-08T01:29:34.767Z,99.99
2016-06-08T01:30:34.754Z,99.99
2016-06-08T01:31:34.740Z,99.99
2016-06-08T01:32:34.712Z,99.99
2016-06-08T01:33:34.699Z,99.99
2016-06-08T01:34:34.670Z,99.99
2016-06-08T01:35:34.642Z,99.99
2016-06-08T01:36:34.629Z,99.99
2016-06-08T01:37:34.616Z,99.99
2016-06-08T01:38:34.603Z,99.99
2016-06-08T01:39:34.574Z,99.99
2016-06-08T01:40:34.561Z,99.99
2016-06-08T01:41:34.533Z,99.99
2016-06-08T01:42:35.160Z,99.99
2016-06-08T01:43:34.492Z,99.99
2016-06-08T01:44:34.463Z,99.99
2016-06-08T01:45:34.450Z,99.99
2016-06-08T01:46:34.422Z,99.99
2016-06-08T01:47:34.408Z,99.99
2016-06-08T01:48:34.380Z,99.99
2016-06-08T01:49:34.367Z,99.99
2016-06-08T01:50:34.354Z,99.99
2016-06-08T01:51:34.326Z,99.99
2016-06-08T01:52:34.313Z,99.99
2016-06-08T01:53:34.299Z,99.99
2016-06-08T01:54:34.271Z,99.99
2016-06-08T01:55:34.242Z,99.99
2016-06-08T01:56:34.651Z,99.99
2016-06-08T01:57:34.201Z,99.99
2016-06-08T01:58:34.173Z,99.99
2016-06-08T01:59:34.160Z,99.99
2016-06-08T02:00:33.990Z,99.99
2016-06-08T02:01:34.118Z,99.99
2016-06-08T02:02:34.106Z,99.99
2016-06-08T02:03:34.076Z,99.99
2016-06-08T02:04:34.048Z,99.99
2016-06-08T02:05:34.035Z,99.99
2016-06-08T02:06:34.022Z,99.99
2016-06-08T02:07:33.994Z,99.99
2016-06-08T02:08:33.981Z,99.99
2016-06-08T02:09:33.952Z,99.99
2016-06-08T02:10:33.939Z,99.99
2016-06-08T02:11:33.910Z,99.99
2016-06-08T02:12:34.555Z,99.99
2016-06-08T02:13:33.869Z,99.99
2016-06-08T02:14:33.841Z,99.99
2016-06-08T02:15:33.828Z,99.99
2016-06-08T02:16:33.815Z,99.99
2016-06-08T02:17:33.786Z,99.99
2016-06-08T02:18:33.758Z,99.99
2016-06-08T02:19:33.760Z,99.99
2016-06-08T02:20:33.716Z,99.99
2016-06-08T02:21:33.703Z,99.99
2016-06-08T02:22:33.690Z,99.99
2016-06-08T02:23:33.662Z,99.99
2016-06-08T02:24:33.633Z,99.99
2016-06-08T02:25:33.620Z,99.99
2016-06-08T02:26:33.607Z,99.99
2016-06-08T02:27:33.734Z,99.99
2016-06-08T02:28:33.550Z,99.99
2016-06-08T02:29:33.537Z,99.99
2016-06-08T02:30:33.508Z,99.99
2016-06-08T02:31:33.496Z,99.99
2016-06-08T02:32:33.467Z,99.99
2016-06-08T02:33:33.454Z,99.99
2016-06-08T02:34:33.426Z,99.99
2016-06-08T02:35:33.412Z,99.99
2016-06-08T02:36:33.244Z,99.99
2016-06-08T02:37:33.372Z,99.99
2016-06-08T02:38:33.342Z,99.99
2016-06-08T02:39:33.330Z,99.99
2016-06-08T02:40:33.301Z,99.99
2016-06-08T02:41:33.288Z,99.99
2016-06-08T02:42:34.088Z,99.99
2016-06-08T02:43:33.246Z,99.99
2016-06-08T02:44:33.218Z,99.99
2016-06-08T02:45:33.190Z,99.99
2016-06-08T02:46:33.176Z,99.99
2016-06-08T02:47:33.164Z,99.99
2016-06-08T02:48:33.135Z,99.99
2016-06-08T02:49:33.138Z,99.99
2016-06-08T02:50:33.094Z,99.99
2016-06-08T02:51:32.909Z,99.99
2016-06-08T02:52:33.052Z,99.99
2016-06-08T02:53:33.024Z,99.99
2016-06-08T02:54:33.010Z,99.99
2016-06-08T02:55:32.998Z,99.99
2016-06-08T02:56:32.969Z,99.99
2016-06-08T02:57:33.237Z,99.99
2016-06-08T02:58:32.928Z,99.99
2016-06-08T02:59:32.742Z,99.99
2016-06-08T03:00:32.886Z,99.99
2016-06-08T03:01:32.858Z,99.99
2016-06-08T03:02:32.844Z,99.99
2016-06-08T03:03:32.817Z,99.99
2016-06-08T03:04:32.787Z,99.99
2016-06-08T03:05:32.775Z,99.99
2016-06-08T03:06:32.762Z,99.99
2016-06-08T03:07:32.733Z,99.99
2016-06-08T03:08:32.720Z,99.99
2016-06-08T03:09:32.692Z,99.99
2016-06-08T03:10:32.663Z,99.99
2016-06-08T03:11:32.666Z,99.99
2016-06-08T03:12:32.637Z,99.99
2016-06-08T03:13:32.608Z,99.99
2016-06-08T03:14:32.580Z,99.99
2016-06-08T03:15:32.566Z,99.99
2016-06-08T03:16:32.538Z,99.99
2016-06-08T03:17:32.526Z,99.99
2016-06-08T03:18:32.497Z,99.99
2016-06-08T03:19:32.485Z,99.99
2016-06-08T03:20:32.455Z,99.99
2016-06-08T03:21:32.443Z,99.99
2016-06-08T03:22:32.413Z,99.99
2016-06-08T03:23:32.401Z,99.99
2016-06-08T03:24:32.388Z,99.99
2016-06-08T03:25:32.360Z,99.99
2016-06-08T03:26:32.363Z,99.99
2016-06-08T03:27:33.084Z,99.99
2016-06-08T03:28:32.290Z,99.99
2016-06-08T03:29:32.261Z,99.99
2016-06-08T03:30:32.248Z,99.99
2016-06-08T03:31:32.234Z,99.99
2016-06-08T03:32:32.206Z,99.99
2016-06-08T03:33:32.179Z,99.99
2016-06-08T03:34:32.165Z,99.99
2016-06-08T03:35:32.137Z,99.99
2016-06-08T03:36:32.123Z,99.99
2016-06-08T03:37:32.095Z,99.99
2016-06-08T03:38:32.082Z,99.99
2016-06-08T03:39:32.069Z,99.99
2016-06-08T03:40:32.041Z,99.99
2016-06-08T03:41:32.028Z,99.99
2016-06-08T03:42:32.843Z,99.99
2016-06-08T03:43:31.986Z,99.99
2016-06-08T03:44:31.942Z,99.99
2016-06-08T03:45:31.930Z,99.99
2016-06-08T03:46:31.900Z,99.99
2016-06-08T03:47:31.887Z,99.99
2016-06-08T03:48:31.859Z,99.99
2016-06-08T03:49:31.846Z,99.99
2016-06-08T03:50:31.833Z,99.99
2016-06-08T03:51:31.804Z,99.99
2016-06-08T03:52:31.776Z,99.99
2016-06-08T03:53:31.763Z,99.99
2016-06-08T03:54:31.735Z,99.99
2016-06-08T03:55:31.721Z,99.99
2016-06-08T03:56:31.709Z,99.99
2016-06-08T03:57:31.523Z,99.99
2016-06-08T03:58:31.652Z,99.99
2016-06-08T03:59:31.639Z,99.99
2016-06-08T04:00:31.610Z,99.99
2016-06-08T04:01:31.597Z,99.99
2016-06-08T04:02:31.568Z,99.99
2016-06-08T04:03:31.556Z,99.99
2016-06-08T04:04:31.542Z,99.99
2016-06-08T04:05:31.514Z,99.99
2016-06-08T04:06:31.501Z,99.99
2016-06-08T04:07:31.473Z,99.99
2016-06-08T04:08:31.444Z,99.99
2016-06-08T04:09:31.431Z,99.99
2016-06-08T04:10:31.403Z,99.99
2016-06-08T04:11:31.389Z,99.99
2016-06-08T04:12:31.392Z,99.99
2016-06-08T04:13:31.347Z,99.99
2016-06-08T04:14:31.320Z,99.99
2016-06-08T04:15:31.307Z,99.99
2016-06-08T04:16:31.278Z,99.99
2016-06-08T04:17:31.265Z,99.99
2016-06-08T04:18:31.236Z,99.99
2016-06-08T04:19:31.224Z,99.99
2016-06-08T04:20:31.194Z,99.99
2016-06-08T04:21:31.182Z,99.99
2016-06-08T04:22:31.169Z,99.99
2016-06-08T04:23:31.141Z,99.99
2016-06-08T04:24:31.112Z,99.99
2016-06-08T04:25:31.099Z,99.99
2016-06-08T04:26:31.086Z,99.99
2016-06-08T04:27:30.917Z,99.99
2016-06-08T04:28:31.045Z,99.99
2016-06-08T04:29:31.031Z,99.99
2016-06-08T04:30:31.004Z,99.99
2016-06-08T04:31:30.991Z,99.99
2016-06-08T04:32:30.962Z,99.99
2016-06-08T04:33:30.934Z,99.99
2016-06-08T04:34:30.920Z,99.99
2016-06-08T04:35:30.907Z,99.99
2016-06-08T04:36:30.878Z,99.99
2016-06-08T04:37:30.865Z,99.99
2016-06-08T04:38:30.837Z,99.99
2016-06-08T04:39:30.825Z,99.99
2016-06-08T04:40:30.795Z,99.99
2016-06-08T04:41:30.798Z,99.99
2016-06-08T04:42:30.801Z,99.99
2016-06-08T04:43:30.741Z,99.99
2016-06-08T04:44:30.728Z,99.99
2016-06-08T04:45:30.699Z,99.99
2016-06-08T04:46:30.672Z,99.99
2016-06-08T04:47:30.659Z,99.91
2016-06-08T04:48:30.645Z,99.99
2016-06-08T04:49:30.616Z,99.82
2016-06-08T04:50:30.604Z,99.63
2016-06-08T04:51:30.591Z,99.96
2016-06-08T04:52:30.562Z,99.39
2016-06-08T04:53:30.534Z,98.52
2016-06-08T04:54:30.521Z,96.51
2016-06-08T04:55:30.508Z,95.84
2016-06-08T04:56:30.479Z,95.56
2016-06-08T04:57:30.466Z,94.31
2016-06-08T04:58:31.266Z,93.68
2016-06-08T04:59:30.424Z,90.95
2016-06-08T05:00:30.412Z,89.75
2016-06-08T05:01:30.398Z,88.83
2016-06-08T05:02:30.370Z,86.81
2016-06-08T05:03:30.358Z,84.94
2016-06-08T05:04:30.329Z,84.74
2016-06-08T05:05:30.301Z,84.45
2016-06-08T05:06:30.290Z,83.63
2016-06-08T05:07:30.288Z,84.01
2016-06-08T05:08:30.270Z,83.92
2016-06-08T05:09:30.282Z,83.11
2016-06-08T05:10:30.109Z,82.24
2016-06-08T05:11:30.244Z,83.78
2016-06-08T05:12:30.235Z,83.84
2016-06-08T05:13:30.226Z,86.72
2016-06-08T05:14:30.201Z,85.85
2016-06-08T05:15:30.192Z,84.8
2016-06-08T05:16:30.182Z,85.85
2016-06-08T05:17:30.170Z,84.31
2016-06-08T05:18:30.143Z,85.03
2016-06-08T05:19:30.116Z,83.4
2016-06-08T05:20:30.104Z,82.24
2016-06-08T05:21:30.093Z,82.34
2016-06-08T05:22:30.063Z,83.49
2016-06-08T05:23:30.067Z,83.78
2016-06-08T05:24:30.039Z,83.78
2016-06-08T05:25:30.011Z,84.07
2016-06-08T05:26:29.998Z,84.17
2016-06-08T05:27:29.986Z,85.89
2016-06-08T05:28:29.973Z,84.36
2016-06-08T05:29:29.945Z,85.08
2016-06-08T05:30:29.932Z,85.95
2016-06-08T05:31:29.920Z,86.47
2016-06-08T05:32:29.907Z,84.22
2016-06-08T05:33:29.879Z,84.03
2016-06-08T05:34:29.865Z,84.99
2016-06-08T05:35:29.837Z,86.72
2016-06-08T05:36:29.823Z,87.19
2016-06-08T05:37:29.812Z,85.03
2016-06-08T05:38:29.782Z,84.36
2016-06-08T05:39:29.769Z,82.53
2016-06-08T05:40:29.757Z,83.01
2016-06-08T05:41:29.743Z,82.92
2016-06-08T05:42:30.168Z,83.2
2016-06-08T05:43:29.702Z,83.4
2016-06-08T05:44:29.673Z,83.4
2016-06-08T05:45:29.661Z,83.01
2016-06-08T05:46:29.648Z,83.97
2016-06-08T05:47:29.478Z,83.87
2016-06-08T05:48:29.606Z,82.29
2016-06-08T05:49:29.594Z,83.01
2016-06-08T05:50:29.580Z,84.01
2016-06-08T05:51:29.552Z,82.67
2016-06-08T05:52:29.539Z,80.46
2016-06-08T05:53:29.525Z,79.73
2016-06-08T05:54:29.497Z,78.58
2016-06-08T05:55:29.499Z,80.25
2016-06-08T05:56:29.488Z,77.01
2016-06-08T05:57:29.333Z,74.93
2016-06-08T05:58:29.446Z,72.91
2016-06-08T05:59:29.416Z,72.27
2016-06-08T06:00:29.404Z,71.98
2016-06-08T06:01:29.391Z,70.96
2016-06-08T06:02:29.362Z,70.76
2016-06-08T06:03:29.349Z,68.1
2016-06-08T06:04:29.336Z,68.59
2016-06-08T06:05:29.324Z,68.87
2016-06-08T06:06:29.296Z,68.13
2016-06-08T06:07:29.282Z,65.47
2016-06-08T06:08:29.284Z,65.56
2016-06-08T06:09:29.256Z,63.34
2016-06-08T06:10:29.243Z,62.95
2016-06-08T06:11:29.245Z,62.7
2016-06-08T06:12:29.217Z,62.31
2016-06-08T06:13:29.204Z,63.28
2016-06-08T06:14:29.192Z,61.73
2016-06-08T06:15:29.179Z,63.08
2016-06-08T06:16:29.150Z,62.5
2016-06-08T06:17:29.137Z,63.11
2016-06-08T06:18:29.124Z,63.21
2016-06-08T06:19:29.111Z,59.15
2016-06-08T06:20:29.098Z,58.95
2016-06-08T06:21:29.085Z,59.47
2016-06-08T06:22:29.072Z,58.98
2016-06-08T06:23:29.060Z,60.44
2016-06-08T06:24:29.047Z,60.21
2016-06-08T06:25:29.033Z,59.44
2016-06-08T06:26:29.005Z,60.53
2016-06-08T06:27:29.008Z,60.02
2016-06-08T06:28:28.994Z,60.5
2016-06-08T06:29:28.966Z,60.31
2016-06-08T06:30:28.953Z,60.63
2016-06-08T06:31:28.956Z,59.34
2016-06-08T06:32:28.928Z,59.34
2016-06-08T06:33:28.758Z,61.08
2016-06-08T06:34:28.932Z,60.79
2016-06-08T06:35:28.733Z,60.41
2016-06-08T06:36:28.876Z,59.05
2016-06-08T06:37:28.863Z,59.25
2016-06-08T06:38:28.834Z,58.57
2016-06-08T06:39:28.853Z,58.95
2016-06-08T06:40:28.824Z,58.95
2016-06-08T06:41:28.795Z,57.99
2016-06-08T06:42:28.782Z,57.6
2016-06-08T06:43:28.785Z,58.28
2016-06-08T06:44:28.757Z,58.09
2016-06-08T06:45:28.759Z,58.09
2016-06-08T06:46:28.747Z,57.7
2016-06-08T06:47:28.718Z,58.37
2016-06-08T06:48:28.720Z,57.89
2016-06-08T06:49:28.536Z,57.41
2016-06-08T06:50:28.694Z,56.11
2016-06-08T06:51:28.666Z,55.73
2016-06-08T06:52:28.669Z,55.07
2016-06-08T06:53:28.656Z,55.49
2016-06-08T06:54:28.628Z,55.82
2016-06-08T06:55:28.630Z,52.95
2016-06-08T06:56:28.602Z,52.95
2016-06-08T06:57:28.588Z,52.68
2016-06-08T06:58:28.872Z,51.35
2016-06-08T06:59:28.563Z,52.1
2016-06-08T07:00:28.549Z,50.74
2016-06-08T07:01:28.537Z,49.87
2016-06-08T07:02:28.524Z,48.66
2016-06-08T07:03:28.511Z,49.37
2016-06-08T07:04:28.499Z,47.62
2016-06-08T07:05:28.484Z,48.9
2016-06-08T07:06:28.488Z,48.1
2016-06-08T07:07:28.491Z,49.07
2016-06-08T07:08:28.446Z,48.88
2016-06-08T07:09:28.465Z,48.49
2016-06-08T07:10:28.436Z,48.1
2016-06-08T07:11:28.423Z,48
2016-06-08T07:12:28.410Z,48.59
2016-06-08T07:13:28.428Z,48.88
2016-06-08T07:14:28.228Z,49.54
2016-06-08T07:15:28.386Z,48.59
2016-06-08T07:16:28.373Z,47.81
2016-06-08T07:17:28.362Z,48.47
2016-06-08T07:18:28.348Z,47.89
2016-06-08T07:19:28.324Z,48.08
2016-06-08T07:20:28.310Z,48.37
2016-06-08T07:21:28.315Z,48.57
2016-06-08T07:22:28.297Z,48.49
2016-06-08T07:23:28.281Z,47.42
2016-06-08T07:24:28.266Z,47.83
2016-06-08T07:25:28.265Z,48.8
2016-06-08T07:26:28.253Z,48.61
2016-06-08T07:27:28.084Z,48.1
2016-06-08T07:28:28.087Z,51.21
2016-06-08T07:29:28.230Z,50.62
2016-06-08T07:30:28.201Z,48.78
2016-06-08T07:31:28.203Z,48.97
2016-06-08T07:32:28.191Z,48.76
2016-06-08T07:33:28.178Z,48.69
2016-06-08T07:34:28.166Z,50.14
2016-06-08T07:35:28.158Z,49.37
2016-06-08T07:36:28.145Z,50.24
2016-06-08T07:37:28.133Z,49.97
2016-06-08T07:38:28.120Z,47.74
2016-06-08T07:39:28.106Z,48.05
2016-06-08T07:40:28.109Z,47.76
2016-06-08T07:41:28.102Z,45.94
2016-06-08T07:42:28.072Z,46.14
2016-06-08T07:43:28.060Z,44.87
2016-06-08T07:44:27.906Z,45.94
2016-06-08T07:45:28.049Z,47.71
2016-06-08T07:46:28.036Z,44.51
2016-06-08T07:47:28.023Z,44.43
2016-06-08T07:48:27.854Z,43.36
2016-06-08T07:49:27.998Z,41.9
2016-06-08T07:50:28.001Z,40.08
2016-06-08T07:51:27.982Z,39.61
2016-06-08T07:52:27.969Z,38.93
2016-06-08T07:53:27.988Z,38.65
2016-06-08T07:54:27.974Z,38.38
2016-06-08T07:55:27.962Z,39.36
2016-06-08T07:56:27.951Z,39.16
2016-06-08T07:57:27.935Z,38.17
2016-06-08T07:58:27.766Z,38.54
2016-06-08T07:59:27.925Z,38.85
2016-06-08T08:00:27.912Z,38.36
2016-06-08T08:01:27.914Z,39.62
2016-06-08T08:02:27.886Z,39.53
2016-06-08T08:03:27.889Z,38.07
2016-06-08T08:04:27.876Z,38.26
2016-06-08T08:05:27.863Z,36.63
2016-06-08T08:06:27.881Z,36.24
2016-06-08T08:07:27.853Z,36.32
2016-06-08T08:08:27.840Z,36.45
2016-06-08T08:09:27.828Z,37.87
2016-06-08T08:10:27.830Z,36.92
2016-06-08T08:11:27.664Z,36.74
2016-06-08T08:12:27.822Z,35.98
2016-06-08T08:13:28.500Z,34.53
2016-06-08T08:14:28.164Z,33.18
2016-06-08T08:15:27.635Z,32.03
2016-06-08T08:16:27.794Z,31.36
2016-06-08T08:17:27.765Z,31.67
2016-06-08T08:18:27.783Z,32.76
2016-06-08T08:19:27.771Z,32.86
2016-06-08T08:20:27.774Z,34.31
2016-06-08T08:21:27.760Z,33.54
2016-06-08T08:22:27.748Z,33.33
2016-06-08T08:23:27.734Z,33.31
2016-06-08T08:24:27.754Z,33.69
2016-06-08T08:25:27.725Z,34.57
2016-06-08T08:26:27.726Z,35.06
2016-06-08T08:27:27.715Z,33.5
2016-06-08T08:28:27.717Z,34.57
2016-06-08T08:29:28.126Z,34.36
2016-06-08T08:30:29.818Z,34.94
2016-06-08T08:31:27.693Z,36.31
2016-06-08T08:32:30.136Z,35.92
2016-06-08T08:33:30.717Z,35.43
2016-06-08T08:34:30.267Z,35.33
2016-06-08T08:35:30.113Z,35.14
2016-06-08T08:36:29.803Z,34.88
2016-06-08T08:37:30.369Z,34.88
2016-06-08T08:38:28.853Z,34.89
2016-06-08T08:39:29.781Z,34.5
2016-06-08T08:40:30.408Z,34.39
2016-06-08T08:41:30.442Z,34.96
2016-06-08T08:42:29.239Z,36.8
2016-06-08T08:43:27.820Z,35.24
2016-06-08T08:44:27.714Z,35.53
2016-06-08T08:45:27.591Z,36.02
2016-06-08T08:46:27.594Z,35.92
2016-06-08T08:47:27.580Z,36.31
2016-06-08T08:48:28.552Z,36.21
2016-06-08T08:49:30.338Z,36.6
2016-06-08T08:50:29.747Z,37.07
2016-06-08T08:51:30.312Z,38.02
2016-06-08T08:52:30.127Z,38.49
2016-06-08T08:53:27.534Z,38.2
2016-06-08T08:54:27.521Z,39.96
2016-06-08T08:55:27.523Z,39.67
2016-06-08T08:56:27.510Z,39.49
2016-06-08T08:57:27.513Z,37.63
2016-06-08T08:58:27.501Z,36.76
2016-06-08T08:59:27.488Z,37.25
2016-06-08T09:00:27.476Z,38.02
2016-06-08T09:01:27.477Z,36.49
2016-06-08T09:02:27.465Z,36.29
2016-06-08T09:03:27.452Z,35.82
2016-06-08T09:04:27.439Z,36.13
2016-06-08T09:05:27.442Z,36.51
2016-06-08T09:06:27.428Z,36.23
2016-06-08T09:07:27.275Z,35.92
2016-06-08T09:08:27.418Z,36.58
2016-06-08T09:09:27.405Z,36.78
2016-06-08T09:10:27.392Z,36.39
2016-06-08T09:11:27.395Z,36.19
2016-06-08T09:12:27.382Z,37.15
2016-06-08T09:13:28.213Z,38.3
2016-06-08T09:14:27.388Z,39.36
2016-06-08T09:15:27.359Z,40.7
2016-06-08T09:16:27.330Z,40.88
2016-06-08T09:17:27.333Z,40.47
2016-06-08T09:18:27.320Z,41.9
2016-06-08T09:19:27.307Z,42.95
2016-06-08T09:20:27.310Z,43.41
2016-06-08T09:21:27.282Z,44.29
2016-06-08T09:22:27.269Z,43.71
2016-06-08T09:23:27.271Z,44.07
2016-06-08T09:24:27.258Z,44.46
2016-06-08T09:25:27.245Z,44.56
2016-06-08T09:26:27.232Z,45.62
2016-06-08T09:27:27.219Z,44.27
2016-06-08T09:28:27.222Z,43.98
2016-06-08T09:29:27.740Z,44.56
2016-06-08T09:30:27.180Z,45.82
2016-06-08T09:31:27.168Z,47.66
2016-06-08T09:32:27.154Z,45.51
2016-06-08T09:33:27.157Z,46.77
2016-06-08T09:34:27.144Z,47.03
2016-06-08T09:35:27.131Z,46.48
2016-06-08T09:36:26.962Z,46.58
2016-06-08T09:37:29.558Z,46.75
2016-06-08T09:38:27.092Z,46.72
2016-06-08T09:39:30.158Z,46.92
2016-06-08T09:40:29.754Z,47.86
2016-06-08T09:41:29.648Z,48.06
2016-06-08T09:42:29.838Z,48.71
2016-06-08T09:43:29.544Z,48.52
2016-06-08T09:44:30.015Z,49.56
2016-06-08T09:45:29.175Z,50.94
2016-06-08T09:46:26.989Z,50.72
2016-06-08T09:47:26.992Z,52.27
2016-06-08T09:48:26.963Z,50.82
2016-06-08T09:49:26.950Z,51.01
2016-06-08T09:50:26.938Z,50.72
2016-06-08T09:51:26.924Z,50.82
2016-06-08T09:52:26.927Z,52.14
2016-06-08T09:53:26.913Z,53.04
2016-06-08T09:54:26.886Z,51.68
2016-06-08T09:55:26.873Z,51.5
2016-06-08T09:56:26.860Z,51.47
2016-06-08T09:57:26.846Z,51.59
2016-06-08T09:58:26.834Z,53.14
2016-06-08T09:59:26.837Z,49.85
2016-06-08T10:00:26.807Z,50.4
2016-06-08T10:01:26.795Z,50.89
2016-06-08T10:02:26.782Z,50.89
2016-06-08T10:03:26.770Z,51.56
2016-06-08T10:04:26.756Z,49.63
2016-06-08T10:05:26.743Z,49.44
2016-06-08T10:06:26.746Z,48.49
2016-06-08T10:07:26.718Z,49.44
2016-06-08T10:08:26.705Z,50.48
2016-06-08T10:09:26.691Z,49.99
2016-06-08T10:10:26.664Z,50.26
2016-06-08T10:11:26.650Z,51.06
2016-06-08T10:12:26.653Z,51.73
2016-06-08T10:13:27.609Z,50.28
2016-06-08T10:14:26.627Z,51.25
2016-06-08T10:15:26.598Z,51.35
2016-06-08T10:16:26.586Z,52
2016-06-08T10:17:26.573Z,52.09
2016-06-08T10:18:26.403Z,52.41
2016-06-08T10:19:26.546Z,53.06
2016-06-08T10:20:26.533Z,51.73
2016-06-08T10:21:26.364Z,51.25
2016-06-08T10:22:26.508Z,50.76
2016-06-08T10:23:27.151Z,50.48
2016-06-08T10:24:26.466Z,52.31
2016-06-08T10:25:26.468Z,53.47
2016-06-08T10:26:26.456Z,54.25
2016-06-08T10:27:26.443Z,52.31
2016-06-08T10:28:26.430Z,53.09
2016-06-08T10:29:26.418Z,52.61
2016-06-08T10:30:26.388Z,53.28
2016-06-08T10:31:26.376Z,52.31
2016-06-08T10:32:26.362Z,51.73
2016-06-08T10:33:26.351Z,53.96
2016-06-08T10:34:26.337Z,53.86
2016-06-08T10:35:26.340Z,53.77
2016-06-08T10:36:26.311Z,55.51
2016-06-08T10:37:26.314Z,53.77
2016-06-08T10:38:26.285Z,55.51
2016-06-08T10:39:26.273Z,54.44
2016-06-08T10:40:26.259Z,52.31
2016-06-08T10:41:26.247Z,53.47
2016-06-08T10:42:26.218Z,51.71
2016-06-08T10:43:26.220Z,51.25
2016-06-08T10:44:26.333Z,50.86
2016-06-08T10:45:26.179Z,51.06
2016-06-08T10:46:26.181Z,50.57
2016-06-08T10:47:26.153Z,51.06
2016-06-08T10:48:26.140Z,51.44
2016-06-08T10:49:26.127Z,52.7
2016-06-08T10:50:26.114Z,52.99
2016-06-08T10:51:26.195Z,51.15
2016-06-08T10:52:26.088Z,50.48
2016-06-08T10:53:26.075Z,50.67
2016-06-08T10:54:27.828Z,50.96
2016-06-08T10:55:26.035Z,52.39
2016-06-08T10:56:26.037Z,52.58
2016-06-08T10:57:26.007Z,52.48
2016-06-08T10:58:25.995Z,51.42
2016-06-08T10:59:26.029Z,52.39
2016-06-08T11:00:26.001Z,53.06
2016-06-08T11:01:25.972Z,53.06
2016-06-08T11:02:25.944Z,54.61
2016-06-08T11:03:25.774Z,54.83
2016-06-08T11:04:25.918Z,53.19
2016-06-08T11:05:25.904Z,50.84
2016-06-08T11:06:25.892Z,49.49
2016-06-08T11:07:25.879Z,48.71
2016-06-08T11:08:25.866Z,49.39
2016-06-08T11:09:25.837Z,49.49
2016-06-08T11:10:25.825Z,49.39
2016-06-08T11:11:25.811Z,50.35
2016-06-08T11:12:25.798Z,50.55
2016-06-08T11:13:25.786Z,50.57
2016-06-08T11:14:25.772Z,51.35
2016-06-08T11:15:26.134Z,52.29
2016-06-08T11:16:25.762Z,51.13
2016-06-08T11:17:25.733Z,51.71
2016-06-08T11:18:25.721Z,52
2016-06-08T11:19:25.708Z,52
2016-06-08T11:20:25.694Z,52.97
2016-06-08T11:21:25.683Z,52
2016-06-08T11:22:25.670Z,51.61
2016-06-08T11:23:25.484Z,51.35
2016-06-08T11:24:25.628Z,52.99
2016-06-08T11:25:25.615Z,53.25
2016-06-08T11:26:25.602Z,52.97
2016-06-08T11:27:25.589Z,54.93
2016-06-08T11:28:25.576Z,53.93
2016-06-08T11:29:25.407Z,53.86
2016-06-08T11:30:25.379Z,53.67
2016-06-08T11:31:25.537Z,54.32
2016-06-08T11:32:25.524Z,52.39
2016-06-08T11:33:25.512Z,53.74
2016-06-08T11:34:25.326Z,52.19
2016-06-08T11:35:25.470Z,52.09
2016-06-08T11:36:25.473Z,52.97
2016-06-08T11:37:25.443Z,51.71
2016-06-08T11:38:25.431Z,52.48
2016-06-08T11:39:25.261Z,52.48
2016-06-08T11:40:25.405Z,53.45
2016-06-08T11:41:25.393Z,53.06
2016-06-08T11:42:25.395Z,53.25
2016-06-08T11:43:25.367Z,52.77
2016-06-08T11:44:25.337Z,51.13
2016-06-08T11:45:25.356Z,51.42
2016-06-08T11:46:25.156Z,51.71
2016-06-08T11:47:25.300Z,51.81
2016-06-08T11:48:25.286Z,50.84
2016-06-08T11:49:25.273Z,51.71
2016-06-08T11:50:25.963Z,52.87
2016-06-08T11:51:25.263Z,50.45
2016-06-08T11:52:25.250Z,50.26
2016-06-08T11:53:25.096Z,51.13
2016-06-08T11:54:25.052Z,51.29
2016-06-08T11:55:25.039Z,51.1
2016-06-08T11:56:25.166Z,51.97
2016-06-08T11:57:25.014Z,51.56
2016-06-08T11:58:25.563Z,52.36
2016-06-08T11:59:24.971Z,51.29
2016-06-08T12:00:31.818Z,52.33
2016-06-08T12:01:25.102Z,51.97
2016-06-08T12:02:25.089Z,52.55
2016-06-08T12:03:25.077Z,51.39
2016-06-08T12:04:25.048Z,51.01
2016-06-08T12:05:24.878Z,51.49
2016-06-08T12:06:36.181Z,50.71
2016-06-08T12:07:25.009Z,50.5
2016-06-08T12:08:24.981Z,53.01
2016-06-08T12:09:29.405Z,53.49
2016-06-08T12:10:24.970Z,51.07
2016-06-08T12:11:24.942Z,51.37
2016-06-08T12:12:24.929Z,50.21
2016-06-08T12:13:24.775Z,51.07
2016-06-08T12:14:24.747Z,52.31
2016-06-08T12:15:24.734Z,53.08
2016-06-08T12:16:24.861Z,54.33
2016-06-08T12:17:24.848Z,52.98
2016-06-08T12:18:24.679Z,52.59
2016-06-08T12:19:24.666Z,53.37
2016-06-08T12:20:24.809Z,54.82
2016-06-08T12:21:24.796Z,55.3
2016-06-08T12:22:24.783Z,53.75
2016-06-08T12:23:24.755Z,54.33
2016-06-08T12:24:24.758Z,53.95
2016-06-08T12:25:24.729Z,54.82
2016-06-08T12:26:24.560Z,54.05
2016-06-08T12:27:24.703Z,54.82
2016-06-08T12:28:24.691Z,54.91
2016-06-08T12:29:25.178Z,55.42
2016-06-08T12:30:25.243Z,54.75
2016-06-08T12:31:24.635Z,52.69
2016-06-08T12:32:24.624Z,54.05
2016-06-08T12:33:24.610Z,53.66
2016-06-08T12:34:24.582Z,54.24
2016-06-08T12:35:24.568Z,54.82
2016-06-08T12:36:24.556Z,54.36
2016-06-08T12:37:24.543Z,53.47
2016-06-08T12:38:24.529Z,52.89
2016-06-08T12:39:24.517Z,54.07
2016-06-08T12:40:24.488Z,53.97
2016-06-08T12:41:24.490Z,54.53
2016-06-08T12:42:24.462Z,53.75
2016-06-08T12:43:24.293Z,54.05
2016-06-08T12:44:24.437Z,54.05
2016-06-08T12:45:24.767Z,54.43
2016-06-08T12:46:24.411Z,55.49
2016-06-08T12:47:24.382Z,55.2
2016-06-08T12:48:24.369Z,54.24
2016-06-08T12:49:24.356Z,54.53
2016-06-08T12:50:24.344Z,54.82
2016-06-08T12:51:24.314Z,54.14
2016-06-08T12:52:24.317Z,55.3
2016-06-08T12:53:24.289Z,55.1
2016-06-08T12:54:24.275Z,55.59